Kamikawa Maru — JG5687 — position and weather

sailwx.info

Track history (hours):
 
Tides and Currents Weather Stations Pressure Air Temp Water Temp Dewpoint Dewpoint Depression Visibility Wind Speed Wind Dir Waves Ship Positions

Kamikawa Maru

Last reported at 2015-Mar-28 22:31 UTC. Time now 2015-Mar-29 09:26 UTC.
Position N 34°33' E 139°10'.

Length 162 m; draft 6.8 m.

Type: Cargo ship. MMSI: 431101012.

Date/timePositionNaut miles runAvg speedWind from/ knotsBaromVisibWave heightAir tempDewpointWater temp
2015-Mar-28 22:31N 34°33' E 139°10'2518.9
2015-Mar-28 21:11N 34°43' E 139°38'1218.9
2015-Mar-28 20:34N 34°48' E 139°51'1918.6
2015-Mar-28 19:34N 34°56' E 140°11'2516.8
2015-Mar-28 18:04N 35°09' E 140°37'2616.8
2015-Mar-28 16:31N 35°32' E 140°53'  
2015-Mar-24 14:09N 35°23' E 140°45'1218.6
2015-Mar-24 13:29N 35°14' E 140°35'1920.1
2015-Mar-24 12:31N 35°01' E 140°17'2814.3
2015-Mar-24 10:34N 35°04' E 139°43'1514.7
2015-Mar-24 09:33N 35°19' E 139°44'1615.7
2015-Mar-24 08:34N 35°33' E 139°50'6 5.1
2015-Mar-24 07:26N 35°38' E 139°46'0 0.0
2015-Mar-24 06:23N 35°38' E 139°46'0 0.0
2015-Mar-24 05:29N 35°38' E 139°46'0 0.0
2015-Mar-24 04:17N 35°38' E 139°46'0 0.0
2015-Mar-24 03:05N 35°38' E 139°46'0 0.0
2015-Mar-24 02:29N 35°38' E 139°46'0 0.0
2015-Mar-24 01:08N 35°38' E 139°46'0 0.0
2015-Mar-24 00:14N 35°38' E 139°46'0 0.0
2015-Mar-23 23:33N 35°38' E 139°46'1010.4
2015-Mar-23 22:34N 35°28' E 139°51'1212.1
2015-Mar-23 21:34N 35°17' E 139°46'1414.5
2015-Mar-23 20:33N 35°03' E 139°41'1918.1
2015-Mar-23 19:30N 34°52' E 139°22'5116.5
2015-Mar-23 16:24N 34°26' E 138°28'6 0.2
2015-Mar-22 10:20N 34°31' E 138°27'5717.9
2015-Mar-22 07:10N 34°57' E 139°28'1118.2
2015-Mar-22 06:33N 35°04' E 139°39'1414.5
2015-Mar-22 05:33N 35°18' E 139°45'1313.2
2015-Mar-22 04:33N 35°30' E 139°51'9 1.8
2015-Mar-21 23:29N 35°38' E 139°46'1111.3
2015-Mar-21 22:33N 35°28' E 139°51'1212.0
2015-Mar-21 21:33N 35°17' E 139°46'1515.1
2015-Mar-21 20:33N 35°02' E 139°44'  
Track history (hours):
 
Tides and Currents Weather Stations Pressure Air Temp Water Temp Dewpoint Dewpoint Depression Visibility Wind Speed Wind Dir Waves Ship Positions

Kamikawa Maru

Last reported at 2015-Mar-28 22:31 UTC. Time now 2015-Mar-29 09:26 UTC.
Position N 34°33' E 139°10'.

Length 162 m; draft 6.8 m.

Type: Cargo ship. MMSI: 431101012.

Date/timePositionNaut miles runAvg speedWind from/ knotsBaromVisibWave heightAir tempDewpointWater temp
2015-Mar-28 22:31N 34°33' E 139°10'2518.9
2015-Mar-28 21:11N 34°43' E 139°38'1218.9
2015-Mar-28 20:34N 34°48' E 139°51'1918.6
2015-Mar-28 19:34N 34°56' E 140°11'2516.8
2015-Mar-28 18:04N 35°09' E 140°37'2616.8
2015-Mar-28 16:31N 35°32' E 140°53'  
2015-Mar-24 14:09N 35°23' E 140°45'1218.6
2015-Mar-24 13:29N 35°14' E 140°35'1920.1
2015-Mar-24 12:31N 35°01' E 140°17'2814.3
2015-Mar-24 10:34N 35°04' E 139°43'1514.7
2015-Mar-24 09:33N 35°19' E 139°44'1615.7
2015-Mar-24 08:34N 35°33' E 139°50'6 5.1
2015-Mar-24 07:26N 35°38' E 139°46'0 0.0
2015-Mar-24 06:23N 35°38' E 139°46'0 0.0
2015-Mar-24 05:29N 35°38' E 139°46'0 0.0
2015-Mar-24 04:17N 35°38' E 139°46'0 0.0
2015-Mar-24 03:05N 35°38' E 139°46'0 0.0
2015-Mar-24 02:29N 35°38' E 139°46'0 0.0
2015-Mar-24 01:08N 35°38' E 139°46'0 0.0
2015-Mar-24 00:14N 35°38' E 139°46'0 0.0
2015-Mar-23 23:33N 35°38' E 139°46'1010.4
2015-Mar-23 22:34N 35°28' E 139°51'1212.1
2015-Mar-23 21:34N 35°17' E 139°46'1414.5
2015-Mar-23 20:33N 35°03' E 139°41'1918.1
2015-Mar-23 19:30N 34°52' E 139°22'5116.5
2015-Mar-23 16:24N 34°26' E 138°28'6 0.2
2015-Mar-22 10:20N 34°31' E 138°27'5717.9
2015-Mar-22 07:10N 34°57' E 139°28'1118.2
2015-Mar-22 06:33N 35°04' E 139°39'1414.5
2015-Mar-22 05:33N 35°18' E 139°45'1313.2
2015-Mar-22 04:33N 35°30' E 139°51'9 1.8
2015-Mar-21 23:29N 35°38' E 139°46'1111.3
2015-Mar-21 22:33N 35°28' E 139°51'1212.0
2015-Mar-21 21:33N 35°17' E 139°46'1515.1
2015-Mar-21 20:33N 35°02' E 139°44'  

Dump ship's entire track history